Time;durP1;ratioP1;P1;durP2;ratioP2;P2;SDS_P1;SDS_P2;PMS_P1;PMS_P2;Temp;Humidity;BMP_temperature;BMP_pressure;BME280_temperature;BME280_humidity;BME280_pressure;Samples;Min_cycle;Max_cycle;Signal;HPM_P1;HPM_P2
2022/09/24 00:01:31;;;;;;;;;;;12.40;76.00;;;-151.14;100.00;62537.16;4284996;33;19902;-84
2022/09/24 00:04:01;;;;;;;;;;;12.40;76.00;;;-151.14;100.00;62537.16;4288827;33;20243;-84
2022/09/24 00:06:31;;;;;;;;;;;12.40;76.00;;;-151.14;100.00;62537.16;4263737;33;20131;-84
2022/09/24 00:09:01;;;;;;;;;;;12.30;76.00;;;-151.14;100.00;62537.16;4263859;33;20148;-83
2022/09/24 00:11:29;;;;;;;;;;;12.40;76.00;;;-151.14;100.00;62537.16;4263966;33;19909;-83
2022/09/24 00:13:58;;;;;;;;;;;12.30;76.10;;;-151.14;100.00;62537.16;4259143;33;19910;-84
2022/09/24 00:16:29;;;;;;;;;;;12.40;76.00;;;-151.14;100.00;62537.16;4259029;33;19910;-84
2022/09/24 00:18:58;;;;;;;;;;;12.30;76.00;;;-151.14;100.00;62537.16;4235225;33;19961;-84
2022/09/24 00:21:29;;;;;;;;;;;12.40;76.10;;;-151.14;100.00;62537.16;4260013;33;19906;-83
2022/09/24 00:23:58;;;;;;;;;;;12.40;76.10;;;-151.14;100.00;62537.16;4260268;33;20121;-83
2022/09/24 00:29:17;;;;;;;;;;;12.30;76.00;;;-151.14;100.00;62537.16;4235361;33;19902;-84
2022/09/24 00:31:45;;;;;;;;;;;12.30;76.10;;;-151.14;100.00;62537.16;4282775;33;19910;-84
2022/09/24 00:34:14;;;;;;;;;;;12.30;76.10;;;-151.14;100.00;62537.16;4261521;33;19902;-84
2022/09/24 00:36:43;;;;;;;;;;;12.30;76.10;;;-151.14;100.00;62537.16;4237755;33;19909;-84
2022/09/24 00:39:12;;;;;;;;;;;12.30;76.00;;;-151.14;100.00;62537.16;4261120;33;19909;-83
2022/09/24 00:41:43;;;;;;;;;;;12.30;76.00;;;-151.14;100.00;62537.16;4261208;33;19903;-83
2022/09/24 00:44:53;;;;;;;;;;;12.30;76.00;;;-151.14;100.00;62537.16;4261412;33;20126;-83
2022/09/24 00:47:34;;;;;;;;;;;12.30;76.10;;;-151.14;100.00;62537.16;4309380;33;19902;-84
2022/09/24 00:50:22;;;;;;;;;;;12.30;76.10;;;-151.14;100.00;62537.16;4261328;33;20316;-84
2022/09/24 00:52:53;;;;;;;;;;;12.30;76.10;;;-151.14;100.00;62537.16;4237945;33;19902;-84
2022/09/24 00:55:22;;;;;;;;;;;12.30;76.10;;;-151.14;100.00;62537.16;4237632;33;20002;-84
2022/09/24 00:57:55;;;;;;;;;;;12.30;76.00;;;-151.14;100.00;62537.16;4262162;33;20005;-84
2022/09/24 01:00:23;;;;;;;;;;;12.30;76.00;;;-151.14;100.00;62537.16;4262149;33;20002;-84
2022/09/24 01:02:55;;;;;;;;;;;12.30;76.10;;;-151.14;100.00;62537.16;4261266;33;19909;-83
2022/09/24 01:05:23;;;;;;;;;;;12.30;76.10;;;-151.14;100.00;62537.16;4309190;33;19909;-84
2022/09/24 01:07:52;;;;;;;;;;;12.30;76.10;;;-151.14;100.00;62537.16;4261031;33;19910;-84
2022/09/24 01:13:13;;;;;;;;;;;12.30;76.10;;;-151.14;100.00;62537.16;4261752;33;20214;-84
2022/09/24 01:15:44;;;;;;;;;;;12.30;76.10;;;-151.14;100.00;62537.16;4284884;33;20294;-83
2022/09/24 01:18:16;;;;;;;;;;;12.30;76.20;;;-151.14;100.00;62537.16;4284485;33;19907;-83
2022/09/24 01:21:06;;;;;;;;;;;12.30;76.10;;;-151.14;100.00;62537.16;4237339;33;20125;-84
2022/09/24 01:24:15;;;;;;;;;;;12.30;76.10;;;-151.14;100.00;62537.16;4237531;33;20094;-83
2022/09/24 01:26:56;;;;;;;;;;;12.30;76.20;;;11.31;100.00;62537.16;4253055;33;19902;-84
2022/09/24 01:29:53;;;;;;;;;;;12.30;76.10;;;-151.14;100.00;62537.16;4284746;33;20218;-83
2022/09/24 01:32:25;;;;;;;;;;;12.30;76.20;;;-151.14;100.00;62537.16;4261496;33;20217;-84
2022/09/24 01:34:57;;;;;;;;;;;12.30;76.20;;;-151.14;100.00;62537.16;4308949;33;20012;-83
2022/09/24 01:37:26;;;;;;;;;;;12.30;76.20;;;-151.14;100.00;62537.16;4261657;33;19902;-84
2022/09/24 01:39:55;;;;;;;;;;;12.30;76.20;;;12.78;100.00;62537.16;4237216;33;19988;-83
2022/09/24 01:42:24;;;;;;;;;;;12.30;76.10;;;11.30;100.00;62537.16;4237057;33;19909;-84
2022/09/24 01:44:54;;;;;;;;;;;12.30;76.10;;;-151.14;100.00;62537.16;4261228;33;19991;-83
2022/09/24 01:47:29;;;;;;;;;;;12.30;76.10;;;11.38;100.00;62537.16;4284560;33;19982;-83
2022/09/24 01:49:57;;;;;;;;;;;12.30;76.10;;;-151.14;100.00;62537.16;4308993;33;19947;-83
2022/09/24 01:52:30;;;;;;;;;;;12.30;76.10;;;-151.14;100.00;62537.16;4284603;33;19934;-83
2022/09/24 01:54:58;;;;;;;;;;;12.20;76.00;;;-151.14;100.00;62537.16;4261566;33;19903;-84
2022/09/24 01:57:29;;;;;;;;;;;12.30;76.20;;;-151.14;100.00;62537.16;4260470;33;20001;-84
2022/09/24 02:00:01;;;;;;;;;;;12.20;76.00;;;-151.14;100.00;62537.16;4271782;33;20001;-83
2022/09/24 02:02:45;;;;;;;;;;;12.30;76.20;;;-151.14;100.00;62537.16;4289153;33;19961;-84
2022/09/24 02:05:18;;;;;;;;;;;12.30;76.20;;;-151.14;100.00;62537.16;4338080;32;20137;-83
2022/09/24 02:07:50;;;;;;;;;;;12.20;76.00;;;-151.14;100.00;62537.16;4288801;33;19909;-84
2022/09/24 02:10:20;;;;;;;;;;;12.20;76.10;;;-151.14;100.00;62537.16;4290180;33;19985;-83
2022/09/24 02:12:51;;;;;;;;;;;12.20;76.00;;;-151.14;100.00;62537.16;4288989;33;20121;-83
2022/09/24 02:15:24;;;;;;;;;;;12.20;76.00;;;-151.14;100.00;62537.16;4337139;32;20457;-83
2022/09/24 02:17:54;;;;;;;;;;;12.20;76.00;;;-151.14;100.00;62537.16;4288282;33;19909;-83
2022/09/24 02:20:23;;;;;;;;;;;12.20;76.00;;;-151.14;100.00;62537.16;4289074;33;19903;-84
2022/09/24 02:22:52;;;;;;;;;;;12.20;76.00;;;-151.14;100.00;62537.16;4265101;33;19902;-83
2022/09/24 02:25:23;;;;;;;;;;;12.20;76.10;;;-151.14;100.00;62537.16;4289134;33;19902;-83
2022/09/24 02:27:51;;;;;;;;;;;12.20;76.00;;;-151.14;100.00;62537.16;4288753;33;20297;-83
2022/09/24 02:30:21;;;;;;;;;;;12.20;76.00;;;-151.14;100.00;62537.16;4288893;33;20213;-83
2022/09/24 02:32:50;;;;;;;;;;;12.20;76.00;;;-151.14;100.00;62537.16;4288711;33;19963;-84
2022/09/24 02:35:17;;;;;;;;;;;12.20;75.90;;;-151.14;100.00;62537.16;4288973;33;19901;-83
2022/09/24 02:37:46;;;;;;;;;;;12.20;75.90;;;-151.14;100.00;62537.16;4288608;33;19901;-83
2022/09/24 02:40:15;;;;;;;;;;;12.20;76.00;;;-151.14;100.00;62537.16;4288772;33;19901;-83
2022/09/24 02:42:44;;;;;;;;;;;12.20;76.00;;;-151.14;100.00;62537.16;4288859;33;19901;-83
2022/09/24 02:45:13;;;;;;;;;;;12.20;75.90;;;-151.14;100.00;62537.16;4288737;33;19996;-83
2022/09/24 02:47:43;;;;;;;;;;;12.20;76.00;;;-151.14;100.00;62537.16;4289394;33;19909;-83
2022/09/24 02:50:11;;;;;;;;;;;12.20;76.00;;;-151.14;100.00;62537.16;4289704;33;19902;-84
2022/09/24 02:52:40;;;;;;;;;;;12.20;76.00;;;-151.14;100.00;62537.16;4288659;33;19909;-84
2022/09/24 02:55:09;;;;;;;;;;;12.20;75.90;;;-151.14;100.00;62537.16;4288367;33;19902;-83
2022/09/24 02:57:37;;;;;;;;;;;12.10;76.00;;;-151.14;100.00;62537.16;4287747;33;19909;-83
2022/09/24 03:00:07;;;;;;;;;;;12.20;76.00;;;-151.14;100.00;62537.16;4264736;33;19921;-83
2022/09/24 03:02:36;;;;;;;;;;;12.20;75.90;;;-151.14;100.00;62537.16;4288417;33;19901;-83
2022/09/24 03:05:07;;;;;;;;;;;12.20;75.90;;;-151.14;100.00;62537.16;4288511;33;19902;-83
2022/09/24 03:07:35;;;;;;;;;;;12.20;75.90;;;-151.14;100.00;62537.16;4289284;33;19901;-83
2022/09/24 03:10:04;;;;;;;;;;;12.20;75.90;;;-151.14;100.00;62537.16;4312455;33;19922;-83
2022/09/24 03:12:33;;;;;;;;;;;12.20;75.90;;;-151.14;100.00;62537.16;4264527;33;19904;-83
2022/09/24 03:15:01;;;;;;;;;;;12.10;75.90;;;-151.14;100.00;62537.16;4289168;33;19989;-83
2022/09/24 03:17:30;;;;;;;;;;;12.20;75.90;;;-151.14;100.00;62537.16;4289064;33;19909;-84
2022/09/24 03:19:59;;;;;;;;;;;12.10;75.90;;;-151.14;100.00;62537.16;4288347;33;20000;-83
2022/09/24 03:22:28;;;;;;;;;;;12.10;75.90;;;-151.14;100.00;62537.16;4288188;33;19902;-83
2022/09/24 03:24:57;;;;;;;;;;;12.10;75.90;;;-151.14;100.00;62537.16;4288163;33;19902;-83
2022/09/24 03:27:25;;;;;;;;;;;12.10;75.90;;;-151.14;100.00;62537.16;4288302;33;19911;-83
2022/09/24 03:32:40;;;;;;;;;;;12.10;75.90;;;12.78;100.00;62537.16;4289294;33;19909;-83
2022/09/24 03:35:09;;;;;;;;;;;12.10;75.90;;;-151.14;100.00;62537.16;4264275;33;20023;-83
2022/09/24 03:37:41;;;;;;;;;;;12.10;75.80;;;-151.14;100.00;62537.16;4336801;32;19909;-83
2022/09/24 03:40:10;;;;;;;;;;;12.10;75.90;;;-151.14;100.00;62537.16;4263963;33;19901;-83
2022/09/24 03:42:39;;;;;;;;;;;12.10;75.90;;;-151.14;100.00;62537.16;4288056;33;20004;-83
2022/09/24 03:45:09;;;;;;;;;;;12.10;75.90;;;-151.14;100.00;62537.16;4312416;33;19962;-83
2022/09/24 03:47:37;;;;;;;;;;;12.10;75.90;;;-151.14;100.00;62537.16;4287917;33;19901;-83
2022/09/24 03:50:10;;;;;;;;;;;12.10;75.90;;;12.78;100.00;62537.16;4264126;33;20000;-83
2022/09/24 03:52:40;;;;;;;;;;;12.10;75.80;;;-151.14;100.00;62537.16;4259338;33;20226;-83
2022/09/24 03:55:09;;;;;;;;;;;12.10;75.80;;;-151.14;100.00;62537.16;4283286;33;19909;-83
2022/09/24 03:57:38;;;;;;;;;;;12.10;75.80;;;-151.14;100.00;62537.16;4235494;33;19960;-83
2022/09/24 04:00:08;;;;;;;;;;;12.10;75.90;;;-151.14;100.00;62537.16;4259231;33;19903;-83
2022/09/24 04:02:36;;;;;;;;;;;12.10;75.80;;;-151.14;100.00;62537.16;4260138;33;19964;-83
2022/09/24 04:05:06;;;;;;;;;;;12.10;76.70;;;-151.14;100.00;62537.16;4258928;33;19936;-83
2022/09/24 04:07:34;;;;;;;;;;;12.10;75.70;;;-151.14;100.00;62537.16;4258921;33;19994;-83
2022/09/24 04:10:05;;;;;;;;;;;12.10;75.80;;;-151.14;100.00;62537.16;4259022;33;19964;-83
2022/09/24 04:12:33;;;;;;;;;;;12.10;75.80;;;-151.14;100.00;62537.16;4235511;33;19989;-83
2022/09/24 04:15:02;;;;;;;;;;;12.10;75.70;;;-151.14;100.00;62537.16;4258998;33;19910;-83
2022/09/24 04:17:31;;;;;;;;;;;12.10;75.80;;;-151.14;100.00;62537.16;4258963;33;19998;-83
2022/09/24 04:20:00;;;;;;;;;;;12.10;75.70;;;-151.14;100.00;62537.16;4235484;33;20008;-83
2022/09/24 04:22:28;;;;;;;;;;;12.10;75.80;;;-151.14;100.00;62537.16;4258939;33;19909;-83
2022/09/24 04:24:57;;;;;;;;;;;12.10;75.80;;;-151.14;100.00;62537.16;4258949;33;19902;-83
2022/09/24 04:27:27;;;;;;;;;;;12.00;75.60;;;-151.14;100.00;62537.16;4258955;33;19956;-84
2022/09/24 04:29:55;;;;;;;;;;;12.00;75.70;;;-151.14;100.00;62537.16;4259952;33;20321;-83
2022/09/24 04:32:24;;;;;;;;;;;12.10;75.70;;;-151.14;100.00;62537.16;4235298;33;19909;-84
2022/09/24 04:34:52;;;;;;;;;;;12.00;75.60;;;-151.14;100.00;62537.16;4306988;33;19957;-84
2022/09/24 04:37:21;;;;;;;;;;;12.00;75.70;;;-151.14;100.00;62537.16;4258891;33;19994;-83
2022/09/24 04:39:50;;;;;;;;;;;12.00;75.70;;;-151.14;100.00;62537.16;4235048;33;20306;-84
2022/09/24 04:42:18;;;;;;;;;;;12.00;75.60;;;-151.14;100.00;62537.16;4235258;33;19929;-83
2022/09/24 04:44:48;;;;;;;;;;;12.00;75.70;;;-151.14;100.00;62537.16;4259708;33;20264;-83
2022/09/24 04:47:17;;;;;;;;;;;12.00;75.60;;;-151.14;100.00;62537.16;4259660;33;19925;-83
2022/09/24 04:49:45;;;;;;;;;;;12.00;75.60;;;-151.14;100.00;62537.16;4259638;33;20012;-83
2022/09/24 04:52:14;;;;;;;;;;;12.00;75.50;;;-151.14;100.00;62537.16;4258838;33;19972;-84
2022/09/24 04:54:45;;;;;;;;;;;12.00;75.40;;;-151.14;100.00;62537.16;4259480;33;19902;-83
2022/09/24 04:57:14;;;;;;;;;;;12.10;75.50;;;-151.14;100.00;62537.16;4259637;33;19974;-83
2022/09/24 04:59:43;;;;;;;;;;;12.10;75.40;;;-151.14;100.00;62537.16;4259557;33;20249;-83
2022/09/24 05:02:13;;;;;;;;;;;12.10;75.40;;;-151.14;100.00;62537.16;4306579;33;19903;-83
2022/09/24 05:04:42;;;;;;;;;;;12.10;75.30;;;-151.14;100.00;62537.16;4282415;33;19998;-83
2022/09/24 05:07:11;;;;;;;;;;;12.10;75.10;;;-151.14;100.00;62537.16;4306782;33;19902;-83
2022/09/24 05:09:39;;;;;;;;;;;12.20;74.90;;;-151.14;100.00;62537.16;4282614;33;20274;-83
2022/09/24 05:12:08;;;;;;;;;;;12.20;74.70;;;-151.14;100.00;62537.16;4282370;33;20240;-83
2022/09/24 05:14:37;;;;;;;;;;;12.20;74.70;;;-151.14;100.00;62537.16;4259766;33;19982;-83
2022/09/24 05:17:05;;;;;;;;;;;12.20;74.70;;;-151.14;100.00;62537.16;4259292;33;19993;-83
2022/09/24 05:19:35;;;;;;;;;;;12.30;74.70;;;-151.14;100.00;62537.16;4259200;33;19910;-83
2022/09/24 05:22:04;;;;;;;;;;;12.30;74.30;;;-151.14;100.00;62537.16;4308885;33;20107;-83
2022/09/24 05:24:32;;;;;;;;;;;12.50;73.90;;;-151.14;100.00;62537.16;4261060;33;19997;-83
2022/09/24 05:27:10;;;;;;;;;;;12.60;73.20;;;-151.14;100.00;62537.16;4309059;33;20214;-83
2022/09/24 05:29:39;;;;;;;;;;;12.60;73.00;;;-151.14;100.00;62537.16;4261716;33;19906;-83
2022/09/24 05:32:09;;;;;;;;;;;12.50;73.10;;;-151.14;100.00;62537.16;4284605;33;19909;-83
2022/09/24 05:34:40;;;;;;;;;;;12.40;73.20;;;-151.14;100.00;62537.16;4260857;33;19909;-84
2022/09/24 05:37:08;;;;;;;;;;;12.50;73.60;;;-151.14;100.00;62537.16;4237201;33;20252;-83
2022/09/24 05:39:37;;;;;;;;;;;12.50;73.70;;;-151.14;100.00;62537.16;4260644;33;19902;-83
2022/09/24 05:42:07;;;;;;;;;;;12.50;73.60;;;-151.14;100.00;62537.16;4261549;33;19902;-83
2022/09/24 05:44:36;;;;;;;;;;;12.70;73.40;;;-151.14;100.00;62537.16;4260742;33;19902;-83
2022/09/24 05:47:05;;;;;;;;;;;12.90;72.70;;;-151.14;100.00;62537.16;4308963;33;19902;-83
2022/09/24 05:49:33;;;;;;;;;;;13.30;71.60;;;-151.14;100.00;62537.16;4261598;33;19950;-83
2022/09/24 05:52:03;;;;;;;;;;;13.60;69.70;;;-151.14;100.00;62537.16;4260529;33;19909;-83
2022/09/24 05:54:32;;;;;;;;;;;13.60;68.60;;;-151.14;100.00;62537.16;4236901;33;19903;-83
2022/09/24 05:57:00;;;;;;;;;;;13.60;68.50;;;-151.14;100.00;62537.16;4284153;33;19998;-83
2022/09/24 05:59:29;;;;;;;;;;;13.60;68.30;;;-151.14;100.00;62537.16;4237020;33;19902;-83
2022/09/24 06:01:57;;;;;;;;;;;13.60;68.20;;;-151.14;100.00;62537.16;4284329;33;19922;-83
2022/09/24 06:04:26;;;;;;;;;;;13.50;68.60;;;-151.14;100.00;62537.16;4260354;33;19980;-83
2022/09/24 06:06:55;;;;;;;;;;;13.40;68.90;;;-151.14;100.00;62537.16;4261289;33;19902;-83
2022/09/24 06:09:25;;;;;;;;;;;13.20;69.40;;;-151.14;100.00;62537.16;4261373;33;19902;-84
2022/09/24 06:11:53;;;;;;;;;;;13.20;70.00;;;-151.14;100.00;62537.16;4261396;33;20010;-83
2022/09/24 06:14:22;;;;;;;;;;;13.00;70.60;;;-151.14;100.00;62537.16;4237017;33;19917;-83
2022/09/24 06:16:50;;;;;;;;;;;12.90;71.00;;;-151.14;100.00;62537.16;4261204;33;19903;-83
2022/09/24 06:19:19;;;;;;;;;;;12.90;71.60;;;-151.14;100.00;62537.16;4261304;33;20202;-83
2022/09/24 06:21:47;;;;;;;;;;;12.70;71.60;;;-151.14;100.00;62537.16;4260201;33;20001;-83
2022/09/24 06:24:16;;;;;;;;;;;12.70;72.30;;;-151.14;100.00;62537.16;4236709;33;19902;-84
2022/09/24 06:26:46;;;;;;;;;;;12.60;72.40;;;-151.14;100.00;62537.16;4261241;33;19909;-83
2022/09/24 06:29:14;;;;;;;;;;;12.60;72.80;;;-151.14;100.00;62537.16;4236603;33;20233;-83
2022/09/24 06:31:44;;;;;;;;;;;12.50;72.90;;;-151.14;100.00;62537.16;4261001;33;19902;-84
2022/09/24 06:34:14;;;;;;;;;;;12.50;73.40;;;-151.14;100.00;62537.16;4261347;33;19902;-83
2022/09/24 06:36:42;;;;;;;;;;;12.50;73.30;;;-151.14;100.00;62537.16;4236361;33;20234;-83
2022/09/24 06:39:11;;;;;;;;;;;12.50;73.20;;;-151.14;100.00;62537.16;4283803;33;20001;-83
2022/09/24 06:41:39;;;;;;;;;;;12.50;73.40;;;-151.14;100.00;62537.16;4307957;33;19981;-84
2022/09/24 06:44:10;;;;;;;;;;;12.50;73.20;;;-151.14;100.00;62537.16;4236340;33;19966;-84
2022/09/24 06:46:38;;;;;;;;;;;12.60;73.20;;;-151.14;100.00;62537.16;4259400;33;20206;-84
2022/09/24 06:49:07;;;;;;;;;;;12.70;73.20;;;18.08;100.00;62537.16;4259787;33;19902;-84
2022/09/24 06:51:35;;;;;;;;;;;12.70;73.20;;;-151.14;100.00;62537.16;4285769;33;20315;-84
2022/09/24 06:54:04;;;;;;;;;;;12.70;73.40;;;-151.14;100.00;62537.16;4263818;33;20200;-84
2022/09/24 06:56:32;;;;;;;;;;;12.70;73.10;;;-151.14;100.00;62537.16;4275248;33;20034;-83
2022/09/24 06:59:01;;;;;;;;;;;12.70;73.00;;;-151.14;100.00;62537.16;4292075;33;20294;-83
2022/09/24 07:01:31;;;;;;;;;;;12.80;72.90;;;-151.14;100.00;62537.16;4291380;33;19902;-84
2022/09/24 07:04:00;;;;;;;;;;;12.80;72.80;;;-151.14;100.00;62537.16;4263724;33;19909;-84
2022/09/24 07:07:28;;;;;;;;;;;12.80;72.80;;;-151.14;100.00;62537.16;4263586;33;19917;-83
2022/09/24 07:09:18;;;;;;;;;;;12.80;72.80;;;-151.14;100.00;62537.16;4263661;33;20221;-83
2022/09/24 07:11:46;;;;;;;;;;;12.90;72.80;;;-151.14;100.00;62537.16;4311798;33;19931;-83
2022/09/24 07:14:15;;;;;;;;;;;12.90;72.80;;;-151.14;100.00;62537.16;4288599;33;20210;-83
2022/09/24 07:16:47;;;;;;;;;;;12.90;72.80;;;-151.14;100.00;62537.16;4288386;33;19902;-84
2022/09/24 07:19:16;;;;;;;;;;;12.90;72.70;;;-151.14;100.00;62537.16;4287405;33;20005;-83
2022/09/24 07:21:44;;;;;;;;;;;12.90;72.80;;;-151.14;100.00;62537.16;4263509;33;19901;-84
2022/09/24 07:24:12;;;;;;;;;;;12.80;72.60;;;-151.14;100.00;62537.16;4263398;33;19925;-83
2022/09/24 07:26:41;;;;;;;;;;;12.90;72.90;;;-151.14;100.00;62537.16;4288426;33;20227;-84
2022/09/24 07:29:10;;;;;;;;;;;12.80;72.80;;;-151.14;100.00;62537.16;4287140;33;19953;-83
2022/09/24 07:31:38;;;;;;;;;;;12.80;72.80;;;-151.14;100.00;62537.16;4287280;33;19902;-84
2022/09/24 07:34:08;;;;;;;;;;;12.80;72.90;;;-151.14;100.00;62537.16;4263524;33;19910;-84
2022/09/24 07:36:37;;;;;;;;;;;12.80;73.00;;;-151.14;100.00;62537.16;4288647;33;19906;-83
2022/09/24 07:39:05;;;;;;;;;;;12.80;73.10;;;-151.14;100.00;62537.16;4311028;33;19916;-84
2022/09/24 07:41:34;;;;;;;;;;;12.80;73.20;;;-151.14;100.00;62537.16;4287286;33;19909;-83
2022/09/24 07:44:03;;;;;;;;;;;12.80;73.40;;;-151.14;100.00;62537.16;4287015;33;20297;-84
2022/09/24 07:46:31;;;;;;;;;;;12.80;73.40;;;-151.14;100.00;62537.16;4287272;33;19908;-84
2022/09/24 07:49:00;;;;;;;;;;;12.80;73.20;;;-151.14;100.00;62537.16;4287111;33;19901;-83
2022/09/24 07:51:30;;;;;;;;;;;12.80;72.90;;;-151.14;100.00;62537.16;4263407;33;20004;-84
2022/09/24 07:53:59;;;;;;;;;;;12.80;72.90;;;-151.14;100.00;62537.16;4263232;33;19909;-84
2022/09/24 07:56:27;;;;;;;;;;;12.80;73.00;;;-151.14;100.00;62537.16;4263232;33;19902;-84
2022/09/24 07:58:56;;;;;;;;;;;12.90;73.10;;;-151.14;100.00;62537.16;4289769;33;19985;-84
2022/09/24 08:01:25;;;;;;;;;;;12.90;73.30;;;-151.14;100.00;62537.16;4317427;33;19909;-84
2022/09/24 08:03:54;;;;;;;;;;;13.00;73.40;;;-151.14;100.00;62537.16;4316300;33;20137;-84
2022/09/24 08:06:22;;;;;;;;;;;13.00;73.20;;;-151.14;100.00;62537.16;4287148;33;19902;-84
2022/09/24 08:08:52;;;;;;;;;;;13.00;73.10;;;-151.14;100.00;62537.16;4286820;33;19921;-84
2022/09/24 08:11:21;;;;;;;;;;;13.10;73.20;;;-151.14;100.00;62537.16;4287013;33;19928;-84
2022/09/24 08:13:50;;;;;;;;;;;13.10;73.20;;;-151.14;100.00;62537.16;4263299;33;19946;-83
2022/09/24 08:16:20;;;;;;;;;;;13.10;73.00;;;-151.14;100.00;62537.16;4287019;33;20176;-84
2022/09/24 08:18:48;;;;;;;;;;;13.20;72.80;;;-151.14;100.00;62537.16;4262822;33;19925;-84
2022/09/24 08:21:17;;;;;;;;;;;13.20;72.70;;;-151.14;100.00;62537.16;4286700;33;20245;-84
2022/09/24 08:23:45;;;;;;;;;;;13.20;72.40;;;-151.14;100.00;62537.16;4286844;33;19909;-84
2022/09/24 08:26:15;;;;;;;;;;;13.20;72.30;;;-151.14;100.00;62537.16;4262979;33;20000;-84
2022/09/24 08:28:44;;;;;;;;;;;13.30;72.30;;;-151.14;100.00;62537.16;4287651;33;19901;-84
2022/09/24 08:31:13;;;;;;;;;;;13.20;72.30;;;-151.14;100.00;62537.16;4263517;33;20005;-85
2022/09/24 08:33:42;;;;;;;;;;;13.20;72.30;;;-151.14;100.00;62537.16;4287772;33;20004;-85
2022/09/24 08:36:11;;;;;;;;;;;13.20;72.30;;;-151.14;100.00;62537.16;4287802;33;20343;-85
2022/09/24 08:38:39;;;;;;;;;;;13.20;72.20;;;-151.14;100.00;62537.16;4287278;33;19902;-85
2022/09/24 08:41:36;;;;;;;;;;;13.20;72.30;;;-151.14;100.00;62537.16;4263475;33;19901;-85
2022/09/24 08:44:08;;;;;;;;;;;13.10;72.60;;;-151.14;100.00;62537.16;4263846;33;20248;-85
2022/09/24 08:49:28;;;;;;;;;;;13.10;72.70;;;-151.14;100.00;62537.16;4287354;33;19902;-85
2022/09/24 08:52:02;;;;;;;;;;;13.10;72.70;;;-151.14;100.00;62537.16;4287789;33;19988;-85
2022/09/24 08:54:32;;;;;;;;;;;13.10;72.90;;;-151.14;100.00;62537.16;4288223;33;19902;-85
2022/09/24 08:57:03;;;;;;;;;;;13.00;72.80;;;-151.14;100.00;62537.16;4266083;33;19937;-85
2022/09/24 08:59:33;;;;;;;;;;;13.00;73.10;;;-151.14;100.00;62537.16;4338803;32;19902;-85
2022/09/24 09:02:16;;;;;;;;;;;13.00;73.10;;;-151.14;100.00;62537.16;4266195;33;20224;-85
2022/09/24 09:04:52;;;;;;;;;;;12.90;73.20;;;-151.14;100.00;62537.16;4265894;33;20324;-86
2022/09/24 09:07:23;;;;;;;;;;;12.90;73.20;;;-151.14;100.00;62537.16;4314058;33;19996;-85
2022/09/24 09:09:55;;;;;;;;;;;12.90;73.40;;;-151.14;100.00;62537.16;4289889;33;20221;-85
2022/09/24 09:12:27;;;;;;;;;;;12.90;73.50;;;-151.14;100.00;62537.16;4289626;33;20206;-85
2022/09/24 09:15:00;;;;;;;;;;;12.90;73.60;;;-151.14;100.00;62537.16;4289899;33;20000;-84
2022/09/24 09:17:41;;;;;;;;;;;12.80;73.60;;;-151.14;100.00;62537.16;4289543;33;19902;-86
2022/09/24 09:20:14;;;;;;;;;;;12.90;73.70;;;-151.14;100.00;62537.16;4289918;33;19992;-84
2022/09/24 09:22:45;;;;;;;;;;;12.90;73.70;;;-151.14;100.00;62537.16;4289776;33;19913;-85
2022/09/24 09:25:20;;;;;;;;;;;12.90;73.60;;;-151.14;100.00;62537.16;4289717;33;19901;-85
2022/09/24 09:27:54;;;;;;;;;;;12.90;73.50;;;-151.14;100.00;62537.16;4265574;33;20006;-84
2022/09/24 09:30:22;;;;;;;;;;;12.80;73.40;;;-151.14;100.00;62537.16;4265922;33;19981;-85
2022/09/24 09:33:05;;;;;;;;;;;12.90;73.50;;;-151.14;100.00;62537.16;4289591;33;19902;-85
2022/09/24 09:35:38;;;;;;;;;;;12.90;73.60;;;-151.14;100.00;62537.16;4265759;33;19980;-86
2022/09/24 09:38:14;;;;;;;;;;;12.90;73.70;;;-151.14;100.00;62537.16;4338120;32;20227;-85
2022/09/24 09:40:45;;;;;;;;;;;12.90;73.70;;;-151.14;100.00;62537.16;4289576;33;19925;-84
2022/09/24 09:43:16;;;;;;;;;;;12.90;73.80;;;-151.14;100.00;62537.16;4289365;33;19901;-85
2022/09/24 09:45:56;;;;;;;;;;;12.90;73.70;;;-151.14;100.00;62537.16;4265493;33;20233;-85
2022/09/24 09:48:27;;;;;;;;;;;12.90;73.70;;;-151.14;100.00;62537.16;4264774;33;19901;-85
2022/09/24 09:50:59;;;;;;;;;;;12.90;73.80;;;-151.14;100.00;62537.16;4289423;33;19908;-85
2022/09/24 09:53:30;;;;;;;;;;;12.90;73.80;;;-151.14;100.00;62537.16;4289442;33;19902;-85
2022/09/24 09:55:59;;;;;;;;;;;12.90;74.00;;;-151.14;100.00;62537.16;4290424;33;20002;-85
2022/09/24 09:58:31;;;;;;;;;;;12.90;73.90;;;-151.14;100.00;62537.16;4265162;33;19902;-85
2022/09/24 10:01:07;;;;;;;;;;;12.90;73.90;;;-151.14;100.00;62537.16;4265495;33;20260;-85
2022/09/24 10:03:48;;;;;;;;;;;12.90;73.90;;;-151.14;100.00;62537.16;4313315;33;19924;-85
2022/09/24 10:06:24;;;;;;;;;;;12.90;73.90;;;-151.14;100.00;62537.16;4264966;33;19902;-85
2022/09/24 10:08:52;;;;;;;;;;;12.90;73.90;;;-151.14;100.00;62537.16;4289079;33;19916;-85
2022/09/24 10:11:22;;;;;;;;;;;12.90;73.90;;;-151.14;100.00;62537.16;4265377;33;19909;-85
2022/09/24 10:14:03;;;;;;;;;;;12.90;73.90;;;-151.14;100.00;62537.16;4265127;33;20125;-86
2022/09/24 10:16:37;;;;;;;;;;;12.90;73.90;;;-151.14;100.00;62537.16;4289085;33;19975;-85
2022/09/24 10:19:15;;;;;;;;;;;12.90;73.90;;;-151.14;100.00;62537.16;4264974;33;20026;-85
2022/09/24 10:21:43;;;;;;;;;;;12.90;73.90;;;-151.14;100.00;62537.16;4264870;33;20252;-85
2022/09/24 10:24:15;;;;;;;;;;;12.90;73.90;;;-151.14;100.00;62537.16;4289299;33;20103;-84
2022/09/24 10:26:45;;;;;;;;;;;12.90;73.90;;;-151.14;100.00;62537.16;4288893;33;19901;-85
2022/09/24 10:32:03;;;;;;;;;;;12.90;73.90;;;-151.14;100.00;62537.16;4288969;33;20229;-85
2022/09/24 10:34:32;;;;;;;;;;;12.90;73.90;;;-151.14;100.00;62537.16;4289079;33;19902;-84
2022/09/24 10:37:01;;;;;;;;;;;12.90;73.90;;;-151.14;100.00;62537.16;4312855;33;19902;-84
2022/09/24 10:39:30;;;;;;;;;;;12.90;73.90;;;-151.14;100.00;62537.16;4264905;33;19902;-85
2022/09/24 10:41:59;;;;;;;;;;;12.90;74.00;;;-151.14;100.00;62537.16;4288846;33;20004;-85
2022/09/24 10:44:34;;;;;;;;;;;12.90;74.00;;;-151.14;100.00;62537.16;4288848;33;20138;-85
2022/09/24 10:47:26;;;;;;;;;;;12.90;73.90;;;-151.14;100.00;62537.16;4288546;33;19925;-85
2022/09/24 10:50:17;;;;;;;;;;;12.90;73.70;;;-151.14;100.00;62537.16;4236652;33;19902;-85
2022/09/24 10:52:47;;;;;;;;;;;12.90;73.70;;;-151.14;100.00;62537.16;4260795;33;19909;-85
2022/09/24 10:55:26;;;;;;;;;;;13.00;73.60;;;-151.14;100.00;62537.16;4259872;33;19909;-85
2022/09/24 10:58:03;;;;;;;;;;;12.90;73.70;;;-151.14;100.00;62537.16;4259605;33;20032;-85
2022/09/24 11:00:39;;;;;;;;;;;12.90;73.60;;;-151.14;100.00;62537.16;4283987;33;20130;-85
2022/09/24 11:03:35;;;;;;;;;;;12.90;73.50;;;-151.14;100.00;62537.16;4236271;33;19903;-85
2022/09/24 11:06:12;;;;;;;;;;;12.90;73.70;;;-151.14;100.00;62537.16;4259830;33;19909;-85
2022/09/24 11:08:54;;;;;;;;;;;12.90;73.70;;;-151.14;100.00;62537.16;4259458;33;19939;-85
2022/09/24 11:11:32;;;;;;;;;;;12.90;73.60;;;-151.14;100.00;62537.16;4259934;33;19993;-85
2022/09/24 11:14:13;;;;;;;;;;;12.90;73.80;;;-151.14;100.00;62537.16;4259730;33;20218;-85
2022/09/24 11:17:02;;;;;;;;;;;12.90;73.70;;;-151.14;100.00;62537.16;4306226;33;22994;-85
2022/09/24 11:19:50;;;;;;;;;;;12.90;73.70;;;-151.14;100.00;62537.16;4259738;33;19990;-84
2022/09/24 11:22:23;;;;;;;;;;;12.90;73.90;;;-151.14;100.00;62537.16;4259607;33;19902;-85
2022/09/24 11:25:17;;;;;;;;;;;12.90;74.00;;;-151.14;100.00;62537.16;4283647;33;19902;-85
2022/09/24 11:27:54;;;;;;;;;;;12.90;74.00;;;-151.14;100.00;62537.16;4260236;33;20233;-85